DAL1516 KLAX-KLAS
Flight info
| Callsign | DAL1516 |
|---|---|
| Flight time | 0h 47m |
| Altitude | 29000 |
| Route | ORCKA5 MISEN RNDRZ4 |
| Aircraft | B739/M-SDE2E3FGHIRWXY/LB1 |
Departure
| Time | 2026-05-07 23:52 |
|---|---|
| Airport | Los Angeles International Airport (KLAX) |
Arrival
| Time | 2026-05-08 00:39 |
|---|---|
| Airport | Harry Reid International Airport (KLAS) |
| Time | Latitude | Longitude | Altitude | Speed | Heading |
|---|---|---|---|---|---|
| 2026-05-07 23:22 | 33.94602 | -118.40805 | 93 ft | 0 kts | 112° |
| 2026-05-07 23:39 | 33.94604 | -118.40812 | 94 ft | 3 kts | 112° |
| 2026-05-07 23:39 | 33.94611 | -118.40833 | 93 ft | 3 kts | 112° |
| 2026-05-07 23:39 | 33.94618 | -118.40854 | 91 ft | 3 kts | 112° |
| 2026-05-07 23:40 | 33.94625 | -118.40875 | 94 ft | 3 kts | 112° |
| 2026-05-07 23:40 | 33.94632 | -118.40896 | 91 ft | 3 kts | 112° |
| 2026-05-07 23:40 | 33.94637 | -118.40910 | 91 ft | 0 kts | 112° |
| 2026-05-07 23:40 | 33.94638 | -118.40914 | 91 ft | 3 kts | 112° |
| 2026-05-07 23:41 | 33.94642 | -118.40926 | 91 ft | 0 kts | 112° |
| 2026-05-07 23:41 | 33.94647 | -118.40916 | 92 ft | 2 kts | 50° |
| 2026-05-07 23:41 | 33.94659 | -118.40910 | 93 ft | 2 kts | 8° |
| 2026-05-07 23:41 | 33.94665 | -118.40909 | 93 ft | 0 kts | 8° |
| 2026-05-07 23:42 | 33.94668 | -118.40908 | 93 ft | 2 kts | 8° |
| 2026-05-07 23:43 | 33.94673 | -118.40908 | 93 ft | 0 kts | 358° |
| 2026-05-07 23:44 | 33.94703 | -118.40910 | 92 ft | 8 kts | 355° |
| 2026-05-07 23:44 | 33.94777 | -118.40888 | 93 ft | 14 kts | 15° |
| 2026-05-07 23:44 | 33.94841 | -118.40806 | 93 ft | 16 kts | 82° |
| 2026-05-07 23:44 | 33.94857 | -118.40654 | 93 ft | 22 kts | 82° |
| 2026-05-07 23:45 | 33.94879 | -118.40442 | 93 ft | 29 kts | 83° |
| 2026-05-07 23:45 | 33.94904 | -118.40201 | 96 ft | 28 kts | 83° |
| 2026-05-07 23:45 | 33.94923 | -118.40008 | 92 ft | 20 kts | 83° |
| 2026-05-07 23:45 | 33.94945 | -118.39932 | 92 ft | 0 kts | 43° |
| 2026-05-07 23:48 | 33.94954 | -118.39924 | 92 ft | 7 kts | 36° |
| 2026-05-07 23:48 | 33.95016 | -118.39913 | 93 ft | 10 kts | 342° |
| 2026-05-07 23:48 | 33.95039 | -118.39974 | 93 ft | 0 kts | 262° |
| 2026-05-07 23:51 | 33.95024 | -118.40113 | 95 ft | 36 kts | 263° |
| 2026-05-07 23:51 | 33.94977 | -118.40590 | 97 ft | 90 kts | 263° |
| 2026-05-07 23:51 | 33.94872 | -118.41644 | 97 ft | 160 kts | 264° |
| 2026-05-07 23:52 | 33.94736 | -118.43097 | 564 ft | 186 kts | 263° |
| 2026-05-07 23:52 | 33.94614 | -118.44637 | 1663 ft | 180 kts | 264° |
| 2026-05-07 23:52 | 33.94504 | -118.46080 | 2593 ft | 173 kts | 264° |
| 2026-05-07 23:52 | 33.94377 | -118.47593 | 2772 ft | 192 kts | 265° |
| 2026-05-07 23:53 | 33.94223 | -118.49267 | 2926 ft | 210 kts | 264° |
| 2026-05-07 23:53 | 33.94026 | -118.51104 | 2967 ft | 233 kts | 263° |
| 2026-05-07 23:53 | 33.93804 | -118.53104 | 3210 ft | 249 kts | 263° |
| 2026-05-07 23:53 | 33.93573 | -118.55221 | 3636 ft | 258 kts | 263° |
| 2026-05-07 23:54 | 33.93337 | -118.57357 | 4343 ft | 257 kts | 264° |
| 2026-05-07 23:54 | 33.93122 | -118.59531 | 4995 ft | 259 kts | 264° |
| 2026-05-07 23:54 | 33.92900 | -118.61693 | 5585 ft | 263 kts | 263° |
| 2026-05-07 23:54 | 33.92611 | -118.63844 | 6159 ft | 268 kts | 253° |
| 2026-05-07 23:55 | 33.91654 | -118.65779 | 6708 ft | 275 kts | 226° |
| 2026-05-07 23:55 | 33.90028 | -118.67021 | 7288 ft | 284 kts | 202° |
| 2026-05-07 23:55 | 33.88057 | -118.67402 | 7845 ft | 291 kts | 177° |
| 2026-05-07 23:55 | 33.86097 | -118.66780 | 8434 ft | 298 kts | 152° |
| 2026-05-07 23:56 | 33.84532 | -118.65179 | 9052 ft | 300 kts | 124° |
| 2026-05-07 23:56 | 33.83698 | -118.62903 | 9679 ft | 297 kts | 96° |
| 2026-05-07 23:56 | 33.83778 | -118.60466 | 10386 ft | 294 kts | 73° |
| 2026-05-07 23:56 | 33.84654 | -118.58182 | 10593 ft | 310 kts | 54° |
| 2026-05-07 23:57 | 33.85916 | -118.55977 | 10736 ft | 331 kts | 53° |
| 2026-05-07 23:57 | 33.87288 | -118.53662 | 11003 ft | 345 kts | 52° |
| 2026-05-07 23:57 | 33.88604 | -118.51429 | 11393 ft | 353 kts | 54° |
| 2026-05-07 23:57 | 33.90015 | -118.49002 | 12030 ft | 354 kts | 54° |
| 2026-05-07 23:58 | 33.91416 | -118.46566 | 12722 ft | 355 kts | 54° |
| 2026-05-07 23:58 | 33.92819 | -118.44117 | 13439 ft | 355 kts | 55° |
| 2026-05-07 23:58 | 33.94228 | -118.41642 | 14003 ft | 360 kts | 55° |
| 2026-05-07 23:58 | 33.95641 | -118.39151 | 14580 ft | 363 kts | 55° |
| 2026-05-07 23:59 | 33.97070 | -118.36626 | 15144 ft | 367 kts | 55° |
| 2026-05-07 23:59 | 33.98522 | -118.34063 | 15646 ft | 372 kts | 55° |
| 2026-05-07 23:59 | 33.99970 | -118.31509 | 16366 ft | 371 kts | 55° |
| 2026-05-07 23:59 | 34.01424 | -118.28941 | 17055 ft | 371 kts | 55° |
| 2026-05-08 00:00 | 34.02888 | -118.26360 | 17606 ft | 376 kts | 55° |
| 2026-05-08 00:00 | 34.04370 | -118.23746 | 18122 ft | 380 kts | 54° |
| 2026-05-08 00:00 | 34.05872 | -118.21097 | 18574 ft | 385 kts | 55° |
| 2026-05-08 00:00 | 34.07386 | -118.18421 | 19025 ft | 389 kts | 55° |
| 2026-05-08 00:01 | 34.08914 | -118.15719 | 19515 ft | 391 kts | 55° |
| 2026-05-08 00:01 | 34.10455 | -118.12994 | 19928 ft | 396 kts | 54° |
| 2026-05-08 00:01 | 34.11482 | -118.11175 | 20295 ft | 396 kts | 54° |
| 2026-05-08 00:01 | 34.13040 | -118.08416 | 20739 ft | 400 kts | 54° |
| 2026-05-08 00:02 | 34.14607 | -118.05638 | 21250 ft | 402 kts | 54° |
| 2026-05-08 00:02 | 34.16187 | -118.02834 | 21690 ft | 405 kts | 54° |
| 2026-05-08 00:02 | 34.17778 | -118.00009 | 22132 ft | 408 kts | 54° |
| 2026-05-08 00:02 | 34.19377 | -117.97167 | 22572 ft | 411 kts | 54° |
| 2026-05-08 00:03 | 34.20984 | -117.94307 | 23106 ft | 411 kts | 54° |
| 2026-05-08 00:03 | 34.22600 | -117.91430 | 23444 ft | 417 kts | 54° |
| 2026-05-08 00:03 | 34.24231 | -117.88522 | 23816 ft | 420 kts | 54° |
| 2026-05-08 00:03 | 34.25871 | -117.85597 | 24228 ft | 421 kts | 54° |
| 2026-05-08 00:04 | 34.27515 | -117.82661 | 24565 ft | 423 kts | 54° |
| 2026-05-08 00:04 | 34.29170 | -117.79702 | 24874 ft | 427 kts | 55° |
| 2026-05-08 00:04 | 34.30838 | -117.76722 | 25270 ft | 428 kts | 54° |
| 2026-05-08 00:04 | 34.32510 | -117.73733 | 25647 ft | 430 kts | 54° |
| 2026-05-08 00:05 | 34.34193 | -117.70720 | 25988 ft | 433 kts | 54° |
| 2026-05-08 00:05 | 34.35886 | -117.67706 | 26398 ft | 434 kts | 54° |
| 2026-05-08 00:05 | 34.37635 | -117.64725 | 26798 ft | 434 kts | 53° |
| 2026-05-08 00:05 | 34.39413 | -117.61769 | 27255 ft | 434 kts | 52° |
| 2026-05-08 00:06 | 34.41193 | -117.58827 | 27747 ft | 433 kts | 52° |
| 2026-05-08 00:06 | 34.42967 | -117.55891 | 28273 ft | 431 kts | 52° |
| 2026-05-08 00:06 | 34.44725 | -117.52966 | 28848 ft | 426 kts | 52° |
| 2026-05-08 00:06 | 34.46471 | -117.50048 | 28978 ft | 431 kts | 52° |
| 2026-05-08 00:07 | 34.49983 | -117.44162 | 29036 ft | 430 kts | 53° |
| 2026-05-08 00:07 | 34.53464 | -117.38296 | 29037 ft | 428 kts | 53° |
| 2026-05-08 00:08 | 34.56932 | -117.32444 | 29040 ft | 426 kts | 53° |
| 2026-05-08 00:08 | 34.60389 | -117.26602 | 29033 ft | 426 kts | 53° |
| 2026-05-08 00:09 | 34.63839 | -117.20764 | 29010 ft | 426 kts | 53° |
| 2026-05-08 00:09 | 34.65565 | -117.17840 | 28909 ft | 426 kts | 53° |
| 2026-05-08 00:09 | 34.67292 | -117.14912 | 28923 ft | 426 kts | 53° |
| 2026-05-08 00:10 | 34.70747 | -117.09046 | 28919 ft | 427 kts | 53° |
| 2026-05-08 00:10 | 34.74202 | -117.03170 | 28917 ft | 427 kts | 53° |
| 2026-05-08 00:11 | 34.77655 | -116.97286 | 28928 ft | 427 kts | 53° |
| 2026-05-08 00:11 | 34.81104 | -116.91402 | 28946 ft | 427 kts | 53° |
| 2026-05-08 00:12 | 34.84553 | -116.85506 | 28957 ft | 427 kts | 53° |
| 2026-05-08 00:12 | 34.87995 | -116.79612 | 28937 ft | 427 kts | 53° |
| 2026-05-08 00:13 | 34.91425 | -116.73731 | 28941 ft | 425 kts | 53° |
| 2026-05-08 00:13 | 34.94807 | -116.67820 | 28936 ft | 425 kts | 54° |
| 2026-05-08 00:14 | 34.98138 | -116.61887 | 28919 ft | 424 kts | 54° |
| 2026-05-08 00:14 | 35.01470 | -116.55954 | 28915 ft | 423 kts | 54° |
| 2026-05-08 00:15 | 35.04800 | -116.50029 | 28886 ft | 423 kts | 54° |
| 2026-05-08 00:15 | 35.08129 | -116.44098 | 28877 ft | 423 kts | 54° |
| 2026-05-08 00:16 | 35.11494 | -116.38432 | 28483 ft | 407 kts | 47° |
| 2026-05-08 00:16 | 35.13420 | -116.35946 | 28032 ft | 401 kts | 44° |
| 2026-05-08 00:16 | 35.15381 | -116.33555 | 27556 ft | 395 kts | 44° |
| 2026-05-08 00:17 | 35.17311 | -116.31183 | 27045 ft | 392 kts | 44° |
| 2026-05-08 00:17 | 35.19223 | -116.28767 | 26518 ft | 388 kts | 45° |
| 2026-05-08 00:17 | 35.21046 | -116.26420 | 26034 ft | 384 kts | 45° |
| 2026-05-08 00:17 | 35.22897 | -116.24019 | 25533 ft | 381 kts | 46° |
| 2026-05-08 00:18 | 35.24648 | -116.21655 | 25043 ft | 379 kts | 47° |
| 2026-05-08 00:18 | 35.26389 | -116.19251 | 24557 ft | 376 kts | 47° |
| 2026-05-08 00:18 | 35.28114 | -116.16864 | 24076 ft | 374 kts | 47° |
| 2026-05-08 00:18 | 35.29839 | -116.14488 | 23564 ft | 373 kts | 46° |
| 2026-05-08 00:19 | 35.31559 | -116.12128 | 23015 ft | 371 kts | 46° |
| 2026-05-08 00:19 | 35.33266 | -116.09784 | 22502 ft | 367 kts | 46° |
| 2026-05-08 00:19 | 35.34961 | -116.07459 | 21997 ft | 364 kts | 46° |
| 2026-05-08 00:19 | 35.36640 | -116.05153 | 21515 ft | 361 kts | 47° |
| 2026-05-08 00:20 | 35.38304 | -116.02866 | 21044 ft | 358 kts | 47° |
| 2026-05-08 00:20 | 35.39957 | -116.00592 | 20598 ft | 356 kts | 46° |
| 2026-05-08 00:20 | 35.41595 | -115.98336 | 20139 ft | 353 kts | 47° |
| 2026-05-08 00:20 | 35.43225 | -115.96092 | 19679 ft | 351 kts | 47° |
| 2026-05-08 00:21 | 35.44844 | -115.93860 | 19231 ft | 349 kts | 46° |
| 2026-05-08 00:21 | 35.46456 | -115.91635 | 18781 ft | 348 kts | 46° |
| 2026-05-08 00:21 | 35.48063 | -115.89416 | 18326 ft | 347 kts | 46° |
| 2026-05-08 00:21 | 35.49665 | -115.87203 | 17807 ft | 347 kts | 46° |
| 2026-05-08 00:22 | 35.51262 | -115.84995 | 17340 ft | 345 kts | 46° |
| 2026-05-08 00:22 | 35.52848 | -115.82800 | 16869 ft | 343 kts | 46° |
| 2026-05-08 00:22 | 35.54426 | -115.80616 | 16410 ft | 340 kts | 47° |
| 2026-05-08 00:22 | 35.55983 | -115.78459 | 16190 ft | 331 kts | 47° |
| 2026-05-08 00:23 | 35.57480 | -115.76383 | 16092 ft | 319 kts | 46° |
| 2026-05-08 00:23 | 35.58923 | -115.74381 | 15995 ft | 307 kts | 46° |
| 2026-05-08 00:23 | 35.60330 | -115.72456 | 15846 ft | 300 kts | 46° |
| 2026-05-08 00:23 | 35.61725 | -115.70577 | 15705 ft | 296 kts | 46° |
| 2026-05-08 00:24 | 35.63123 | -115.68699 | 15576 ft | 302 kts | 45° |
| 2026-05-08 00:24 | 35.64558 | -115.66770 | 15441 ft | 309 kts | 45° |
| 2026-05-08 00:24 | 35.66013 | -115.64809 | 15280 ft | 311 kts | 46° |
| 2026-05-08 00:24 | 35.67470 | -115.62840 | 15135 ft | 311 kts | 46° |
| 2026-05-08 00:25 | 35.68921 | -115.60875 | 14964 ft | 310 kts | 46° |
| 2026-05-08 00:25 | 35.70365 | -115.58920 | 14806 ft | 308 kts | 46° |
| 2026-05-08 00:25 | 35.71803 | -115.56972 | 14646 ft | 306 kts | 46° |
| 2026-05-08 00:25 | 35.73336 | -115.55173 | 14482 ft | 304 kts | 33° |
| 2026-05-08 00:26 | 35.75144 | -115.53851 | 14347 ft | 301 kts | 28° |
| 2026-05-08 00:26 | 35.76971 | -115.52606 | 14197 ft | 300 kts | 28° |
| 2026-05-08 00:26 | 35.78794 | -115.51361 | 14043 ft | 299 kts | 29° |
| 2026-05-08 00:26 | 35.80611 | -115.50108 | 13884 ft | 299 kts | 30° |
| 2026-05-08 00:27 | 35.82416 | -115.48856 | 13744 ft | 298 kts | 29° |
| 2026-05-08 00:27 | 35.84192 | -115.47614 | 13577 ft | 298 kts | 28° |
| 2026-05-08 00:27 | 35.86009 | -115.46340 | 13415 ft | 297 kts | 28° |
| 2026-05-08 00:27 | 35.86074 | -115.46294 | 13409 ft | 297 kts | 28° |
| 2026-05-08 00:28 | 35.87406 | -115.45359 | 13292 ft | 297 kts | 28° |
| 2026-05-08 00:28 | 35.89195 | -115.44103 | 13140 ft | 296 kts | 28° |
| 2026-05-08 00:28 | 35.90987 | -115.42845 | 12943 ft | 297 kts | 28° |
| 2026-05-08 00:28 | 35.92806 | -115.41575 | 12587 ft | 303 kts | 28° |
| 2026-05-08 00:29 | 35.94641 | -115.40294 | 12269 ft | 304 kts | 28° |
| 2026-05-08 00:29 | 35.96481 | -115.39011 | 11914 ft | 304 kts | 27° |
| 2026-05-08 00:29 | 35.98307 | -115.37738 | 11574 ft | 301 kts | 28° |
| 2026-05-08 00:29 | 36.00049 | -115.36301 | 11213 ft | 303 kts | 43° |
| 2026-05-08 00:30 | 36.01151 | -115.34117 | 10958 ft | 302 kts | 71° |
| 2026-05-08 00:30 | 36.01505 | -115.31952 | 10789 ft | 301 kts | 86° |
| 2026-05-08 00:30 | 36.01436 | -115.29354 | 10589 ft | 303 kts | 93° |
| 2026-05-08 00:30 | 36.01276 | -115.26735 | 10368 ft | 308 kts | 94° |
| 2026-05-08 00:31 | 36.01110 | -115.24097 | 10147 ft | 306 kts | 94° |
| 2026-05-08 00:31 | 36.00957 | -115.21504 | 9926 ft | 301 kts | 93° |
| 2026-05-08 00:31 | 36.00817 | -115.18940 | 9692 ft | 296 kts | 93° |
| 2026-05-08 00:31 | 36.00688 | -115.16433 | 9475 ft | 290 kts | 93° |
| 2026-05-08 00:32 | 36.00563 | -115.13971 | 9266 ft | 284 kts | 93° |
| 2026-05-08 00:32 | 36.00441 | -115.11562 | 9066 ft | 279 kts | 93° |
| 2026-05-08 00:32 | 36.00321 | -115.09192 | 8826 ft | 275 kts | 93° |
| 2026-05-08 00:32 | 36.00202 | -115.06848 | 8586 ft | 272 kts | 93° |
| 2026-05-08 00:33 | 36.00084 | -115.04533 | 8360 ft | 267 kts | 93° |
| 2026-05-08 00:33 | 35.99968 | -115.02282 | 8145 ft | 259 kts | 94° |
| 2026-05-08 00:33 | 35.99890 | -115.00073 | 7791 ft | 256 kts | 89° |
| 2026-05-08 00:33 | 35.99879 | -114.97864 | 7442 ft | 252 kts | 89° |
| 2026-05-08 00:34 | 35.99874 | -114.95737 | 7134 ft | 250 kts | 89° |
| 2026-05-08 00:34 | 35.99964 | -114.93612 | 6812 ft | 247 kts | 74° |
| 2026-05-08 00:34 | 36.00780 | -114.91821 | 6517 ft | 239 kts | 42° |
| 2026-05-08 00:34 | 36.02077 | -114.90591 | 6236 ft | 233 kts | 28° |
| 2026-05-08 00:35 | 36.03577 | -114.90029 | 5904 ft | 222 kts | 355° |
| 2026-05-08 00:35 | 36.05026 | -114.90461 | 5665 ft | 210 kts | 334° |
| 2026-05-08 00:35 | 36.06270 | -114.91335 | 5365 ft | 201 kts | 320° |
| 2026-05-08 00:35 | 36.06986 | -114.92724 | 5074 ft | 192 kts | 281° |
| 2026-05-08 00:36 | 36.07191 | -114.94358 | 4817 ft | 190 kts | 277° |
| 2026-05-08 00:36 | 36.07336 | -114.95946 | 4573 ft | 183 kts | 274° |
| 2026-05-08 00:36 | 36.07385 | -114.97491 | 4379 ft | 178 kts | 270° |
| 2026-05-08 00:36 | 36.07390 | -114.99005 | 4161 ft | 174 kts | 270° |
| 2026-05-08 00:37 | 36.07387 | -115.00481 | 3934 ft | 170 kts | 270° |
| 2026-05-08 00:37 | 36.07383 | -115.01940 | 3746 ft | 171 kts | 269° |
| 2026-05-08 00:37 | 36.07380 | -115.03399 | 3555 ft | 170 kts | 269° |
| 2026-05-08 00:38 | 36.07375 | -115.06249 | 3136 ft | 163 kts | 270° |
| 2026-05-08 00:38 | 36.07372 | -115.07656 | 2927 ft | 165 kts | 270° |
| 2026-05-08 00:38 | 36.07370 | -115.09062 | 2707 ft | 162 kts | 271° |
| 2026-05-08 00:38 | 36.07369 | -115.10447 | 2478 ft | 160 kts | 270° |
| 2026-05-08 00:39 | 36.07363 | -115.11827 | 2276 ft | 160 kts | 271° |
| 2026-05-08 00:39 | 36.07361 | -115.13192 | 2083 ft | 154 kts | 272° |
| 2026-05-08 00:39 | 36.07366 | -115.14379 | 2116 ft | 118 kts | 269° |
| 2026-05-08 00:39 | 36.07366 | -115.15024 | 2128 ft | 41 kts | 270° |
| 2026-05-08 00:40 | 36.07403 | -115.15345 | 2138 ft | 34 kts | 290° |
| 2026-05-08 00:40 | 36.07503 | -115.15568 | 2144 ft | 23 kts | 306° |
| 2026-05-08 00:40 | 36.07600 | -115.15695 | 2146 ft | 19 kts | 316° |
| 2026-05-08 00:40 | 36.07694 | -115.15804 | 2147 ft | 18 kts | 330° |
| 2026-05-08 00:41 | 36.07800 | -115.15775 | 2147 ft | 18 kts | 70° |
| 2026-05-08 00:41 | 36.07805 | -115.15614 | 2143 ft | 20 kts | 90° |
| 2026-05-08 00:41 | 36.07805 | -115.15448 | 2142 ft | 19 kts | 90° |
| 2026-05-08 00:41 | 36.07805 | -115.15274 | 2137 ft | 22 kts | 90° |
| 2026-05-08 00:42 | 36.07859 | -115.15097 | 2129 ft | 23 kts | 57° |
| 2026-05-08 00:42 | 36.07865 | -115.14905 | 2122 ft | 22 kts | 95° |
| 2026-05-08 00:42 | 36.07945 | -115.14773 | 2116 ft | 19 kts | 44° |
| 2026-05-08 00:42 | 36.07990 | -115.14701 | 2116 ft | 0 kts | 55° |